createdAt,value
2022-07-29T00:02:25.619Z,61.15
2022-07-29T00:04:52.224Z,61.47
2022-07-29T00:07:19.237Z,61.47
2022-07-29T00:09:52.024Z,61.69
2022-07-29T00:12:26.230Z,61.24
2022-07-29T00:14:57.677Z,60.94
2022-07-29T00:17:27.160Z,61.07
2022-07-29T00:19:53.661Z,61.81
2022-07-29T00:22:20.908Z,60.92
2022-07-29T00:24:50.253Z,60.98
2022-07-29T00:27:17.443Z,61.11
2022-07-29T00:29:43.932Z,60.92
2022-07-29T00:32:10.470Z,60.78
2022-07-29T00:34:55.660Z,60.66
2022-07-29T00:37:22.243Z,60.72
2022-07-29T00:39:51.473Z,60.58
2022-07-29T00:42:18.442Z,60.35
2022-07-29T00:44:44.894Z,60.53
2022-07-29T00:47:12.022Z,60.16
2022-07-29T00:49:41.062Z,60.50
2022-07-29T00:52:08.935Z,59.92
2022-07-29T00:54:37.172Z,60.25
2022-07-29T00:57:10.943Z,59.97
2022-07-29T00:59:37.464Z,59.72
2022-07-29T01:02:04.393Z,59.69
2022-07-29T01:04:32.002Z,59.79
2022-07-29T01:06:59.061Z,60.28
2022-07-29T01:09:45.165Z,59.66
2022-07-29T01:12:23.960Z,59.90
2022-07-29T01:14:51.493Z,59.78
2022-07-29T01:17:27.743Z,60.00
2022-07-29T01:20:24.749Z,59.58
2022-07-29T01:23:08.526Z,59.71
2022-07-29T01:25:55.768Z,59.04
2022-07-29T01:28:50.234Z,59.13
2022-07-29T01:31:26.976Z,59.49
2022-07-29T01:34:02.533Z,59.10
2022-07-29T01:36:38.113Z,59.01
2022-07-29T01:39:23.946Z,59.08
2022-07-29T01:42:22.195Z,59.26
2022-07-29T01:44:58.195Z,58.91
2022-07-29T01:47:30.730Z,58.60
2022-07-29T01:50:00.702Z,59.21
2022-07-29T01:52:34.863Z,58.79
2022-07-29T01:55:08.538Z,58.87
2022-07-29T01:57:38.398Z,58.32
2022-07-29T02:00:06.469Z,58.74
2022-07-29T02:02:34.394Z,58.31
2022-07-29T02:05:03.247Z,59.31
2022-07-29T02:07:33.057Z,58.97
2022-07-29T02:10:03.327Z,59.28
2022-07-29T02:12:31.928Z,59.09
2022-07-29T02:15:01.966Z,59.04
2022-07-29T02:17:32.453Z,58.67
2022-07-29T02:20:02.574Z,58.55
2022-07-29T02:22:30.995Z,58.85
2022-07-29T02:24:59.612Z,58.68
2022-07-29T02:27:29.398Z,58.53
2022-07-29T02:29:58.384Z,58.56
2022-07-29T02:32:27.065Z,58.48
2022-07-29T02:34:55.038Z,58.80
2022-07-29T02:37:22.380Z,58.72
2022-07-29T02:39:49.889Z,58.93
2022-07-29T02:42:19.399Z,58.87
2022-07-29T02:44:46.190Z,59.02
2022-07-29T02:47:41.806Z,59.29
2022-07-29T02:50:15.111Z,59.18
2022-07-29T02:52:47.836Z,59.42
2022-07-29T02:55:26.106Z,59.86
2022-07-29T02:58:03.427Z,59.71
2022-07-29T03:00:32.409Z,59.88
2022-07-29T03:03:07.756Z,59.66
2022-07-29T03:05:36.089Z,59.69
2022-07-29T03:08:05.920Z,59.78
2022-07-29T03:10:32.817Z,59.87
2022-07-29T03:12:59.983Z,60.09
2022-07-29T03:15:27.438Z,60.51
2022-07-29T03:17:54.699Z,60.68
2022-07-29T03:20:21.913Z,60.83
2022-07-29T03:22:48.643Z,61.01
2022-07-29T03:25:16.609Z,61.00
2022-07-29T03:27:43.978Z,60.98
2022-07-29T03:30:11.830Z,61.36
2022-07-29T03:32:38.657Z,61.46
2022-07-29T03:35:07.262Z,61.87
2022-07-29T03:37:34.467Z,61.82
2022-07-29T03:40:05.906Z,61.96
2022-07-29T03:42:34.647Z,61.95
2022-07-29T03:45:04.326Z,62.22
2022-07-29T03:47:49.590Z,61.96
2022-07-29T03:50:20.273Z,62.12
2022-07-29T03:52:47.569Z,61.68
2022-07-29T03:55:15.086Z,61.93
2022-07-29T03:57:42.972Z,62.23
2022-07-29T04:00:10.084Z,62.42
2022-07-29T04:02:38.847Z,61.99
2022-07-29T04:05:05.691Z,62.84
2022-07-29T04:07:32.151Z,62.79
2022-07-29T04:09:58.642Z,62.26
2022-07-29T04:12:25.770Z,62.28
2022-07-29T04:14:52.273Z,62.35
2022-07-29T04:17:18.746Z,62.72
2022-07-29T04:19:45.247Z,62.63
2022-07-29T04:22:11.813Z,62.67
2022-07-29T04:24:38.302Z,62.42
2022-07-29T04:27:04.759Z,63.05
2022-07-29T04:29:31.246Z,63.04
2022-07-29T04:31:57.729Z,63.13
2022-07-29T04:34:28.052Z,63.11
2022-07-29T04:36:55.110Z,63.31
2022-07-29T04:39:23.285Z,63.29
2022-07-29T04:41:51.161Z,63.39
2022-07-29T04:44:19.648Z,63.29
2022-07-29T04:46:46.398Z,63.20
2022-07-29T04:49:13.075Z,63.17
2022-07-29T04:51:39.818Z,62.74
2022-07-29T04:54:07.071Z,63.07
2022-07-29T04:56:33.547Z,62.78
2022-07-29T04:59:00.034Z,62.87
2022-07-29T05:01:26.654Z,62.89
2022-07-29T05:03:57.026Z,63.31
2022-07-29T05:06:26.507Z,63.68
2022-07-29T05:08:52.976Z,64.69
2022-07-29T05:11:22.377Z,63.96
2022-07-29T05:13:49.763Z,63.28
2022-07-29T05:16:16.323Z,63.44
2022-07-29T05:18:43.156Z,63.27
2022-07-29T05:21:09.796Z,63.42
2022-07-29T05:23:36.614Z,64.17
2022-07-29T05:26:03.208Z,63.28
2022-07-29T05:28:29.674Z,62.68
2022-07-29T05:30:56.258Z,62.76
2022-07-29T05:33:35.418Z,62.39
2022-07-29T05:36:06.452Z,63.01
2022-07-29T05:38:33.210Z,63.40
2022-07-29T05:41:00.529Z,63.88
2022-07-29T05:43:30.184Z,64.11
2022-07-29T05:45:57.617Z,64.81
2022-07-29T05:48:24.418Z,64.73
2022-07-29T05:50:50.946Z,65.10
2022-07-29T05:53:19.445Z,65.32
2022-07-29T05:55:51.003Z,66.89
2022-07-29T05:58:17.536Z,65.57
2022-07-29T06:00:44.213Z,65.91
2022-07-29T06:03:10.760Z,66.36
2022-07-29T06:05:37.275Z,66.47
2022-07-29T06:08:06.569Z,67.79
2022-07-29T06:10:33.216Z,67.44
2022-07-29T06:12:59.745Z,67.73
2022-07-29T06:15:26.404Z,67.90
2022-07-29T06:17:59.293Z,68.90
2022-07-29T06:20:27.822Z,67.53
2022-07-29T06:22:54.515Z,67.42
2022-07-29T06:25:21.131Z,67.96
2022-07-29T06:27:47.644Z,68.09
2022-07-29T06:30:14.576Z,67.52
2022-07-29T06:32:43.263Z,67.78
2022-07-29T06:35:36.174Z,68.14
2022-07-29T06:37:59.633Z,67.69
2022-07-29T06:40:45.407Z,67.61
2022-07-29T06:43:11.942Z,67.32
2022-07-29T06:45:42.182Z,67.90
2022-07-29T06:48:09.318Z,67.57
2022-07-29T06:50:35.847Z,68.00
2022-07-29T06:53:02.447Z,67.72
2022-07-29T06:55:28.907Z,68.49
2022-07-29T06:57:55.363Z,68.06
2022-07-29T07:00:21.920Z,67.60
2022-07-29T07:02:48.873Z,67.22
2022-07-29T07:05:15.507Z,67.50
2022-07-29T07:07:42.042Z,67.06
2022-07-29T07:10:08.843Z,67.19
2022-07-29T07:12:35.338Z,67.19
2022-07-29T07:15:01.845Z,67.29
2022-07-29T07:17:28.374Z,66.66
2022-07-29T07:19:54.821Z,66.59
2022-07-29T07:22:21.358Z,66.22
2022-07-29T07:24:47.788Z,66.22
2022-07-29T07:27:14.329Z,65.65
2022-07-29T07:29:42.137Z,64.99
2022-07-29T07:32:11.236Z,65.03
2022-07-29T07:34:38.963Z,65.13
2022-07-29T07:37:06.470Z,65.16
2022-07-29T07:39:33.106Z,64.20
2022-07-29T07:41:59.911Z,63.73
2022-07-29T07:44:26.518Z,63.58
2022-07-29T07:46:53.391Z,63.76
2022-07-29T07:49:21.551Z,63.61
2022-07-29T07:51:50.847Z,62.96
2022-07-29T07:54:20.652Z,62.40
2022-07-29T07:56:49.941Z,62.25
2022-07-29T07:59:20.065Z,61.68
2022-07-29T08:01:47.801Z,61.17
2022-07-29T08:04:27.716Z,61.14
2022-07-29T08:06:55.771Z,61.34
2022-07-29T08:09:29.213Z,61.56
2022-07-29T08:11:58.506Z,61.00
2022-07-29T08:14:25.680Z,60.54
2022-07-29T08:16:52.359Z,60.07
2022-07-29T08:19:19.273Z,59.63
2022-07-29T08:21:45.851Z,59.35
2022-07-29T08:24:44.761Z,59.40
2022-07-29T08:27:33.401Z,58.73
2022-07-29T08:29:58.556Z,59.05
2022-07-29T08:32:50.837Z,58.32
2022-07-29T08:35:14.228Z,58.63
2022-07-29T08:37:40.725Z,58.38
2022-07-29T08:40:07.549Z,57.66
2022-07-29T08:42:34.041Z,57.19
2022-07-29T08:45:00.657Z,56.94
2022-07-29T08:47:30.617Z,56.24
2022-07-29T08:49:57.258Z,56.72
2022-07-29T08:52:26.813Z,57.15
2022-07-29T08:54:54.309Z,56.45
2022-07-29T08:57:23.501Z,56.30
2022-07-29T08:59:53.321Z,56.00
2022-07-29T09:02:22.030Z,56.37
2022-07-29T09:04:49.758Z,56.51
2022-07-29T09:07:18.588Z,55.92
2022-07-29T09:09:45.988Z,55.58
2022-07-29T09:12:13.263Z,56.70
2022-07-29T09:14:56.258Z,56.09
2022-07-29T09:17:41.385Z,54.70
2022-07-29T09:20:13.680Z,54.34
2022-07-29T09:22:42.211Z,55.12
2022-07-29T09:25:09.581Z,54.90
2022-07-29T09:27:36.561Z,54.37
2022-07-29T09:30:05.337Z,54.40
2022-07-29T09:32:33.016Z,54.58
2022-07-29T09:35:20.184Z,53.99
2022-07-29T09:37:47.502Z,54.32
2022-07-29T09:40:19.110Z,54.01
2022-07-29T09:42:46.630Z,53.76
2022-07-29T09:45:26.584Z,53.61
2022-07-29T09:47:53.105Z,54.11
2022-07-29T09:50:24.918Z,54.42
2022-07-29T09:52:54.164Z,53.97
2022-07-29T09:55:20.824Z,53.76
2022-07-29T09:57:48.380Z,54.54
2022-07-29T10:00:18.733Z,54.55
2022-07-29T10:02:47.131Z,54.52
2022-07-29T10:05:21.821Z,53.82
2022-07-29T10:07:57.225Z,53.41
2022-07-29T10:10:26.733Z,53.65
2022-07-29T10:13:07.787Z,53.83
2022-07-29T10:15:39.455Z,53.95
2022-07-29T10:18:07.092Z,54.31
2022-07-29T10:20:33.741Z,54.59
2022-07-29T10:23:00.238Z,53.69
2022-07-29T10:25:28.937Z,53.61
2022-07-29T10:27:55.885Z,53.05
2022-07-29T10:30:25.337Z,52.91
2022-07-29T10:33:23.118Z,52.21
2022-07-29T10:36:08.329Z,52.56
2022-07-29T10:39:15.916Z,51.26
2022-07-29T10:42:03.634Z,50.59
2022-07-29T10:44:31.327Z,49.73
2022-07-29T10:46:58.561Z,49.21
2022-07-29T10:49:30.280Z,48.85
2022-07-29T10:52:07.355Z,47.42
2022-07-29T10:54:46.133Z,47.19
2022-07-29T10:57:15.728Z,46.58
2022-07-29T10:59:44.137Z,44.96
2022-07-29T11:02:46.533Z,44.19
2022-07-29T11:08:20.052Z,44.25
2022-07-29T11:10:49.863Z,44.28
2022-07-29T11:13:44.642Z,44.48
2022-07-29T11:16:13.795Z,43.51
2022-07-29T11:22:00.282Z,44.35
2022-07-29T11:24:33.199Z,45.15
2022-07-29T11:27:23.332Z,46.67
2022-07-29T11:30:03.332Z,44.62
2022-07-29T11:32:48.450Z,45.53
2022-07-29T11:35:38.510Z,45.84
2022-07-29T11:38:31.766Z,44.84
2022-07-29T11:41:27.545Z,44.58
2022-07-29T11:43:56.835Z,45.36
2022-07-29T11:46:49.649Z,43.87
2022-07-29T11:49:32.147Z,44.01
2022-07-29T11:52:02.399Z,42.60
2022-07-29T11:54:38.887Z,40.26
2022-07-29T11:57:22.605Z,41.28
2022-07-29T11:59:49.211Z,40.17
2022-07-29T12:02:37.121Z,38.93
2022-07-29T12:05:10.665Z,39.74
2022-07-29T12:07:39.432Z,38.40
2022-07-29T12:10:08.299Z,36.75
2022-07-29T12:12:39.532Z,36.88
2022-07-29T12:15:25.001Z,34.68
2022-07-29T12:18:14.003Z,34.49
2022-07-29T12:20:40.767Z,34.97
2022-07-29T12:23:13.190Z,34.79
2022-07-29T12:25:41.450Z,34.74
2022-07-29T12:28:14.121Z,33.93
2022-07-29T12:30:44.995Z,33.52
2022-07-29T12:33:18.485Z,32.65
2022-07-29T12:35:58.067Z,33.71
2022-07-29T12:38:30.552Z,33.99
2022-07-29T12:40:57.454Z,34.21
2022-07-29T12:43:25.801Z,34.24
2022-07-29T12:45:54.861Z,32.58
2022-07-29T12:48:38.734Z,31.74
2022-07-29T12:51:07.092Z,32.49
2022-07-29T12:53:34.029Z,30.93
2022-07-29T12:56:15.580Z,31.53
2022-07-29T12:58:51.426Z,31.23
2022-07-29T13:01:20.312Z,31.16
2022-07-29T13:03:57.391Z,30.05
2022-07-29T13:06:46.185Z,30.42
2022-07-29T13:09:23.325Z,30.41
2022-07-29T13:11:53.735Z,30.34
2022-07-29T13:14:54.794Z,29.86
2022-07-29T13:17:28.620Z,29.69
2022-07-29T13:20:09.721Z,28.48
2022-07-29T13:22:36.838Z,29.04
2022-07-29T13:25:04.104Z,28.26
2022-07-29T13:27:35.316Z,29.44
2022-07-29T13:30:05.704Z,30.39
2022-07-29T13:32:35.391Z,30.58
2022-07-29T13:35:05.730Z,30.39
2022-07-29T13:37:35.227Z,31.10
2022-07-29T13:40:04.337Z,31.04
2022-07-29T13:42:32.264Z,31.82
2022-07-29T13:45:00.482Z,32.29
2022-07-29T13:47:32.246Z,30.81
2022-07-29T13:50:00.626Z,30.18
2022-07-29T13:52:27.166Z,30.39
2022-07-29T13:54:53.646Z,30.19
2022-07-29T13:57:20.179Z,30.74
2022-07-29T13:59:50.532Z,30.67
2022-07-29T14:02:20.032Z,30.79
2022-07-29T14:04:47.084Z,29.20
2022-07-29T14:07:16.221Z,29.92
2022-07-29T14:09:43.312Z,30.13
2022-07-29T14:12:10.309Z,30.67
2022-07-29T14:14:37.648Z,30.44
2022-07-29T14:17:07.179Z,29.75
2022-07-29T14:19:36.517Z,29.75
2022-07-29T14:22:04.713Z,29.88
2022-07-29T14:24:32.124Z,29.86
2022-07-29T14:26:59.050Z,29.05
2022-07-29T14:29:35.250Z,29.43
2022-07-29T14:32:08.709Z,29.73
2022-07-29T14:34:36.276Z,29.43
2022-07-29T14:37:03.804Z,29.30
2022-07-29T14:39:31.628Z,29.27
2022-07-29T14:41:59.187Z,28.64
2022-07-29T14:44:31.779Z,29.73
2022-07-29T14:47:00.451Z,31.43
2022-07-29T14:49:27.883Z,31.80
2022-07-29T14:51:54.645Z,32.68
2022-07-29T14:54:21.272Z,32.61
2022-07-29T14:56:50.208Z,32.29
2022-07-29T14:59:17.322Z,32.93
2022-07-29T15:01:44.178Z,33.17
2022-07-29T15:04:10.672Z,32.52
2022-07-29T15:06:38.794Z,32.68
2022-07-29T15:09:05.502Z,32.82
2022-07-29T15:11:33.486Z,32.36
2022-07-29T15:14:05.713Z,32.90
2022-07-29T15:16:32.323Z,32.60
2022-07-29T15:19:01.082Z,31.85
2022-07-29T15:21:28.473Z,32.22
2022-07-29T15:23:54.965Z,32.33
2022-07-29T15:26:21.951Z,32.20
2022-07-29T15:28:48.835Z,32.56
2022-07-29T15:31:15.452Z,32.33
2022-07-29T15:33:42.057Z,31.61
2022-07-29T15:36:08.828Z,31.15
2022-07-29T15:38:35.358Z,31.35
2022-07-29T15:41:08.218Z,32.04
2022-07-29T15:43:36.114Z,33.56
2022-07-29T15:46:21.410Z,34.36
2022-07-29T15:48:48.124Z,34.73
2022-07-29T15:51:15.148Z,36.96
2022-07-29T15:53:41.674Z,36.92
2022-07-29T15:56:08.132Z,36.91
2022-07-29T15:58:34.590Z,37.32
2022-07-29T16:01:01.123Z,37.98
2022-07-29T16:03:27.656Z,38.57
2022-07-29T16:05:54.122Z,37.83
2022-07-29T16:08:20.587Z,38.74
2022-07-29T16:10:47.146Z,38.29
2022-07-29T16:13:16.992Z,38.82
2022-07-29T16:16:02.676Z,39.61
2022-07-29T16:18:30.376Z,38.89
2022-07-29T16:20:57.700Z,39.25
2022-07-29T16:23:24.718Z,39.70
2022-07-29T16:25:59.688Z,39.11
2022-07-29T16:28:26.398Z,39.85
2022-07-29T16:30:52.925Z,40.24
2022-07-29T16:33:19.374Z,39.60
2022-07-29T16:35:45.886Z,38.78
2022-07-29T16:38:12.346Z,38.76
2022-07-29T16:40:38.917Z,38.64
2022-07-29T16:43:05.401Z,38.83
2022-07-29T16:45:44.409Z,39.08
2022-07-29T16:48:12.540Z,39.45
2022-07-29T16:50:39.969Z,39.65
2022-07-29T16:53:06.874Z,39.54
2022-07-29T16:55:36.113Z,38.92
2022-07-29T16:58:02.617Z,39.17
2022-07-29T17:00:29.327Z,38.79
2022-07-29T17:02:55.896Z,39.78
2022-07-29T17:05:22.692Z,40.15
2022-07-29T17:07:49.877Z,39.76
2022-07-29T17:10:16.459Z,40.34
2022-07-29T17:12:43.099Z,40.26
2022-07-29T17:15:14.385Z,40.54
2022-07-29T17:17:55.369Z,40.86
2022-07-29T17:20:23.485Z,41.75
2022-07-29T17:22:49.965Z,42.06
2022-07-29T17:25:21.103Z,41.82
2022-07-29T17:27:49.669Z,41.54
2022-07-29T17:30:16.899Z,42.33
2022-07-29T17:32:43.352Z,42.35
2022-07-29T17:35:29.026Z,42.13
2022-07-29T17:37:55.877Z,42.04
2022-07-29T17:40:22.578Z,42.42
2022-07-29T17:42:49.197Z,42.23
2022-07-29T17:45:18.997Z,42.78
2022-07-29T17:47:45.558Z,42.99
2022-07-29T17:50:12.154Z,44.41
2022-07-29T17:52:39.097Z,44.95
2022-07-29T17:55:06.959Z,45.33
2022-07-29T17:57:34.149Z,45.96
2022-07-29T18:00:01.046Z,46.40
2022-07-29T18:02:27.821Z,46.70
2022-07-29T18:04:55.121Z,47.16
2022-07-29T18:07:21.670Z,48.01
2022-07-29T18:09:48.141Z,48.35
2022-07-29T18:12:14.655Z,48.99
2022-07-29T18:14:41.180Z,48.88
2022-07-29T18:17:07.969Z,48.82
2022-07-29T18:19:34.393Z,49.17
2022-07-29T18:22:05.243Z,49.54
2022-07-29T18:24:35.788Z,49.93
2022-07-29T18:27:04.811Z,49.87
2022-07-29T18:29:31.316Z,50.25
2022-07-29T18:31:59.802Z,49.82
2022-07-29T18:34:26.329Z,50.53
2022-07-29T18:36:52.926Z,50.66
2022-07-29T18:39:21.123Z,50.68
2022-07-29T18:41:50.137Z,50.78
2022-07-29T18:44:18.796Z,50.92
2022-07-29T18:46:47.411Z,51.24
2022-07-29T18:49:14.765Z,51.52
2022-07-29T18:51:41.392Z,51.90
2022-07-29T18:54:09.132Z,52.52
2022-07-29T18:56:35.598Z,52.49
2022-07-29T18:59:02.960Z,52.94
2022-07-29T19:01:31.809Z,52.99
2022-07-29T19:03:59.228Z,53.34
2022-07-29T19:06:26.215Z,53.48
2022-07-29T19:08:53.222Z,54.21
2022-07-29T19:11:22.101Z,54.05
2022-07-29T19:13:51.414Z,54.53
2022-07-29T19:16:18.385Z,55.03
2022-07-29T19:18:47.919Z,54.72
2022-07-29T19:21:14.407Z,55.52
2022-07-29T19:24:04.175Z,55.27
2022-07-29T19:26:28.514Z,56.32
2022-07-29T19:28:55.255Z,55.93
2022-07-29T19:31:21.795Z,56.36
2022-07-29T19:33:48.392Z,56.15
2022-07-29T19:36:14.983Z,56.70
2022-07-29T19:38:41.497Z,56.92
2022-07-29T19:41:08.500Z,57.50
2022-07-29T19:43:50.994Z,57.36
2022-07-29T19:46:20.870Z,57.30
2022-07-29T19:48:47.937Z,57.92
2022-07-29T19:51:14.541Z,57.80
2022-07-29T19:53:41.077Z,58.25
2022-07-29T19:56:08.900Z,58.66
2022-07-29T19:58:36.163Z,58.98
2022-07-29T20:01:10.602Z,58.48
2022-07-29T20:03:44.688Z,58.57
2022-07-29T20:06:11.377Z,58.57
2022-07-29T20:08:38.219Z,58.69
2022-07-29T20:11:05.253Z,58.71
2022-07-29T20:13:33.535Z,58.85
2022-07-29T20:16:01.126Z,58.91
2022-07-29T20:18:27.778Z,59.24
2022-07-29T20:20:56.149Z,59.61
2022-07-29T20:23:23.262Z,59.95
2022-07-29T20:25:49.992Z,60.36
2022-07-29T20:28:16.521Z,60.67
2022-07-29T20:30:43.146Z,60.77
2022-07-29T20:33:09.757Z,60.89
2022-07-29T20:35:36.426Z,61.25
2022-07-29T20:38:05.278Z,61.36
2022-07-29T20:40:35.716Z,61.46
2022-07-29T20:43:02.178Z,61.76
2022-07-29T20:45:38.596Z,61.79
2022-07-29T20:48:10.522Z,61.94
2022-07-29T20:50:37.370Z,62.13
2022-07-29T20:53:03.845Z,62.38
2022-07-29T20:55:33.213Z,62.15
2022-07-29T20:57:59.777Z,62.44
2022-07-29T21:00:26.446Z,62.38
2022-07-29T21:02:52.963Z,62.96
2022-07-29T21:05:19.650Z,63.10
2022-07-29T21:07:46.168Z,63.45
2022-07-29T21:10:14.076Z,63.44
2022-07-29T21:12:41.813Z,63.61
2022-07-29T21:15:09.013Z,64.33
2022-07-29T21:17:36.108Z,64.19
2022-07-29T21:20:06.624Z,64.42
2022-07-29T21:22:33.155Z,64.83
2022-07-29T21:24:59.782Z,64.91
2022-07-29T21:27:44.901Z,64.95
2022-07-29T21:30:11.478Z,65.14
2022-07-29T21:32:38.179Z,65.02
2022-07-29T21:35:18.268Z,65.58
2022-07-29T21:37:51.763Z,65.88
2022-07-29T21:40:18.313Z,65.83
2022-07-29T21:42:44.844Z,66.14
2022-07-29T21:45:13.400Z,66.29
2022-07-29T21:47:39.868Z,66.63
2022-07-29T21:50:06.849Z,67.12
2022-07-29T21:52:33.286Z,67.46
2022-07-29T21:54:59.947Z,68.20
2022-07-29T21:57:26.516Z,67.99
2022-07-29T21:59:59.523Z,68.95
2022-07-29T22:02:28.893Z,68.96
2022-07-29T22:04:55.444Z,69.10
2022-07-29T22:07:21.950Z,69.40
2022-07-29T22:09:48.467Z,69.46
2022-07-29T22:12:15.010Z,69.70
2022-07-29T22:14:42.049Z,69.89
2022-07-29T22:17:08.600Z,69.54
2022-07-29T22:19:35.111Z,71.03
2022-07-29T22:22:01.537Z,71.32
2022-07-29T22:24:27.997Z,71.53
2022-07-29T22:26:54.511Z,72.02
2022-07-29T22:29:21.022Z,72.37
2022-07-29T22:31:47.481Z,72.94
2022-07-29T22:34:14.290Z,73.32
2022-07-29T22:36:41.166Z,73.39
2022-07-29T22:39:07.849Z,73.42
2022-07-29T22:41:34.738Z,73.66
2022-07-29T22:44:01.287Z,73.67
2022-07-29T22:46:27.859Z,73.82
2022-07-29T22:48:54.404Z,73.89
2022-07-29T22:51:21.004Z,74.50
2022-07-29T22:53:47.473Z,74.60
2022-07-29T22:56:13.957Z,75.13
2022-07-29T22:58:40.451Z,74.55
2022-07-29T23:01:07.063Z,74.50
2022-07-29T23:03:33.826Z,75.18
2022-07-29T23:06:00.394Z,75.90
2022-07-29T23:08:26.857Z,75.58
2022-07-29T23:10:53.405Z,75.69
2022-07-29T23:13:19.848Z,75.59
2022-07-29T23:15:46.347Z,75.86
2022-07-29T23:18:12.937Z,75.81
2022-07-29T23:20:39.581Z,75.90
2022-07-29T23:23:06.105Z,75.89
2022-07-29T23:25:32.673Z,76.32
2022-07-29T23:27:59.145Z,76.47
2022-07-29T23:30:25.782Z,76.90
2022-07-29T23:32:55.865Z,76.63
2022-07-29T23:35:23.339Z,76.80
2022-07-29T23:37:49.886Z,76.74
2022-07-29T23:40:16.545Z,77.21
2022-07-29T23:42:43.490Z,77.40
2022-07-29T23:45:11.545Z,77.96
2022-07-29T23:47:38.113Z,78.20
2022-07-29T23:50:09.338Z,78.35
2022-07-29T23:52:35.773Z,78.73
2022-07-29T23:55:36.371Z,78.99
2022-07-29T23:57:48.819Z,79.99
